Toronto, Canada
Current Conditions -  °F | °C
As of 1:00 AM on Friday 19 Dec 2014 (Local Time) from CYYZ Reporting Station
Overcast Overcast  
Wind Chill: 12°   Ceiling: 1300
Heat Index: 25°   Visibility: 15mi
Dew Point: 19°   Wind: 15mph
Humidity: 80%   Direction: 350°N
Pressure: 30.11"   Gusts: 22mph
Location:  43.65°N, 79.39°W
Report Text: CYYZ 190600Z 35013G19KT 15SM OVC013 M04/M07 A3011 RMK SC8 SLP206
Loading
Personal Weather Stations






























Interactive Weather Map New forecast layout! Learn more

10-Day Weather Forecast

Advertisements
Track Severe Weather on mobile